sensor_id;sensor_type;location;lat;lon;timestamp;P1;durP1;ratioP1;P2;durP2;ratioP2
44270;SDS011;29963;44.594;11.368;2024-02-23T00:01:51;2.92;;;2.25;;
44270;SDS011;29963;44.594;11.368;2024-02-23T00:04:17;5.75;;;2.85;;
44270;SDS011;29963;44.594;11.368;2024-02-23T00:06:44;5.38;;;2.55;;
44270;SDS011;29963;44.594;11.368;2024-02-23T00:09:09;4.45;;;2.80;;
44270;SDS011;29963;44.594;11.368;2024-02-23T00:11:35;6.90;;;3.10;;
44270;SDS011;29963;44.594;11.368;2024-02-23T00:14:06;6.95;;;2.40;;
44270;SDS011;29963;44.594;11.368;2024-02-23T00:16:36;5.30;;;2.75;;
44270;SDS011;29963;44.594;11.368;2024-02-23T00:19:08;4.22;;;2.65;;
44270;SDS011;29963;44.594;11.368;2024-02-23T00:21:35;4.93;;;2.65;;
44270;SDS011;29963;44.594;11.368;2024-02-23T00:24:01;5.40;;;2.95;;
44270;SDS011;29963;44.594;11.368;2024-02-23T00:26:27;4.68;;;2.42;;
44270;SDS011;29963;44.594;11.368;2024-02-23T00:28:54;7.53;;;3.13;;
44270;SDS011;29963;44.594;11.368;2024-02-23T00:31:19;4.30;;;2.47;;
44270;SDS011;29963;44.594;11.368;2024-02-23T00:33:45;5.28;;;2.95;;
44270;SDS011;29963;44.594;11.368;2024-02-23T00:36:11;5.65;;;2.83;;
44270;SDS011;29963;44.594;11.368;2024-02-23T00:38:37;3.85;;;2.33;;
44270;SDS011;29963;44.594;11.368;2024-02-23T00:41:02;6.72;;;2.70;;
44270;SDS011;29963;44.594;11.368;2024-02-23T00:43:28;6.30;;;2.58;;
44270;SDS011;29963;44.594;11.368;2024-02-23T00:45:56;3.00;;;2.40;;
44270;SDS011;29963;44.594;11.368;2024-02-23T00:48:22;5.82;;;3.05;;
44270;SDS011;29963;44.594;11.368;2024-02-23T00:50:47;4.18;;;2.40;;
44270;SDS011;29963;44.594;11.368;2024-02-23T00:53:13;6.43;;;2.63;;
44270;SDS011;29963;44.594;11.368;2024-02-23T00:55:42;5.93;;;2.78;;
44270;SDS011;29963;44.594;11.368;2024-02-23T00:58:08;3.88;;;2.47;;
44270;SDS011;29963;44.594;11.368;2024-02-23T01:00:34;3.92;;;2.08;;
44270;SDS011;29963;44.594;11.368;2024-02-23T01:02:59;5.15;;;3.25;;
44270;SDS011;29963;44.594;11.368;2024-02-23T01:05:25;4.93;;;2.75;;
44270;SDS011;29963;44.594;11.368;2024-02-23T01:07:51;9.18;;;3.08;;
44270;SDS011;29963;44.594;11.368;2024-02-23T01:10:16;5.00;;;2.35;;
44270;SDS011;29963;44.594;11.368;2024-02-23T01:12:42;6.82;;;2.63;;
44270;SDS011;29963;44.594;11.368;2024-02-23T01:15:08;2.95;;;2.35;;
44270;SDS011;29963;44.594;11.368;2024-02-23T01:17:33;4.75;;;2.90;;
44270;SDS011;29963;44.594;11.368;2024-02-23T01:19:59;7.10;;;2.95;;
44270;SDS011;29963;44.594;11.368;2024-02-23T01:22:25;8.25;;;2.97;;
44270;SDS011;29963;44.594;11.368;2024-02-23T01:24:51;8.50;;;2.85;;
44270;SDS011;29963;44.594;11.368;2024-02-23T01:27:16;7.05;;;2.50;;
44270;SDS011;29963;44.594;11.368;2024-02-23T01:29:43;4.07;;;2.35;;
44270;SDS011;29963;44.594;11.368;2024-02-23T01:32:09;7.55;;;2.55;;
44270;SDS011;29963;44.594;11.368;2024-02-23T01:34:34;6.10;;;2.75;;
44270;SDS011;29963;44.594;11.368;2024-02-23T01:37:00;9.15;;;2.90;;
44270;SDS011;29963;44.594;11.368;2024-02-23T01:39:26;6.70;;;2.80;;
44270;SDS011;29963;44.594;11.368;2024-02-23T01:41:51;5.30;;;2.67;;
44270;SDS011;29963;44.594;11.368;2024-02-23T01:44:17;3.97;;;2.53;;
44270;SDS011;29963;44.594;11.368;2024-02-23T01:46:43;4.88;;;3.22;;
44270;SDS011;29963;44.594;11.368;2024-02-23T01:49:09;3.90;;;2.65;;
44270;SDS011;29963;44.594;11.368;2024-02-23T01:51:35;7.40;;;2.80;;
44270;SDS011;29963;44.594;11.368;2024-02-23T01:54:01;4.97;;;2.85;;
44270;SDS011;29963;44.594;11.368;2024-02-23T01:56:28;6.93;;;3.08;;
44270;SDS011;29963;44.594;11.368;2024-02-23T01:58:54;5.25;;;2.67;;
44270;SDS011;29963;44.594;11.368;2024-02-23T02:01:21;5.68;;;3.70;;
44270;SDS011;29963;44.594;11.368;2024-02-23T02:03:46;10.35;;;2.85;;
44270;SDS011;29963;44.594;11.368;2024-02-23T02:06:12;5.07;;;2.50;;
44270;SDS011;29963;44.594;11.368;2024-02-23T02:08:37;8.23;;;3.47;;
44270;SDS011;29963;44.594;11.368;2024-02-23T02:11:03;5.57;;;2.95;;
44270;SDS011;29963;44.594;11.368;2024-02-23T02:13:29;9.38;;;2.92;;
44270;SDS011;29963;44.594;11.368;2024-02-23T02:15:55;3.33;;;2.78;;
44270;SDS011;29963;44.594;11.368;2024-02-23T02:18:24;6.70;;;3.03;;
44270;SDS011;29963;44.594;11.368;2024-02-23T02:20:58;6.40;;;2.65;;
44270;SDS011;29963;44.594;11.368;2024-02-23T02:23:24;7.75;;;2.55;;
44270;SDS011;29963;44.594;11.368;2024-02-23T02:25:58;5.13;;;2.58;;
44270;SDS011;29963;44.594;11.368;2024-02-23T02:28:24;8.88;;;2.58;;
44270;SDS011;29963;44.594;11.368;2024-02-23T02:30:50;6.43;;;2.67;;
44270;SDS011;29963;44.594;11.368;2024-02-23T02:33:17;4.85;;;2.65;;
44270;SDS011;29963;44.594;11.368;2024-02-23T02:35:43;6.03;;;2.60;;
44270;SDS011;29963;44.594;11.368;2024-02-23T02:38:10;3.90;;;2.28;;
44270;SDS011;29963;44.594;11.368;2024-02-23T02:40:36;6.82;;;3.17;;
44270;SDS011;29963;44.594;11.368;2024-02-23T02:43:01;3.80;;;2.58;;
44270;SDS011;29963;44.594;11.368;2024-02-23T02:45:27;7.07;;;2.75;;
44270;SDS011;29963;44.594;11.368;2024-02-23T02:47:53;8.85;;;3.72;;
44270;SDS011;29963;44.594;11.368;2024-02-23T02:50:18;7.50;;;3.17;;
44270;SDS011;29963;44.594;11.368;2024-02-23T02:52:44;5.38;;;2.45;;
44270;SDS011;29963;44.594;11.368;2024-02-23T02:55:10;6.47;;;2.65;;
44270;SDS011;29963;44.594;11.368;2024-02-23T02:57:35;4.43;;;2.78;;
44270;SDS011;29963;44.594;11.368;2024-02-23T03:00:02;8.93;;;2.88;;
44270;SDS011;29963;44.594;11.368;2024-02-23T03:02:30;3.15;;;2.72;;
44270;SDS011;29963;44.594;11.368;2024-02-23T03:04:56;3.80;;;2.85;;
44270;SDS011;29963;44.594;11.368;2024-02-23T03:07:22;4.13;;;2.85;;
44270;SDS011;29963;44.594;11.368;2024-02-23T03:09:48;5.57;;;3.00;;
44270;SDS011;29963;44.594;11.368;2024-02-23T03:12:15;5.97;;;3.33;;
44270;SDS011;29963;44.594;11.368;2024-02-23T03:14:41;4.13;;;3.00;;
44270;SDS011;29963;44.594;11.368;2024-02-23T03:17:07;5.43;;;3.22;;
44270;SDS011;29963;44.594;11.368;2024-02-23T03:19:34;6.35;;;3.83;;
44270;SDS011;29963;44.594;11.368;2024-02-23T03:22:00;5.00;;;2.78;;
44270;SDS011;29963;44.594;11.368;2024-02-23T03:24:26;5.10;;;2.85;;
44270;SDS011;29963;44.594;11.368;2024-02-23T03:26:51;4.40;;;2.35;;
44270;SDS011;29963;44.594;11.368;2024-02-23T03:29:17;4.85;;;2.50;;
44270;SDS011;29963;44.594;11.368;2024-02-23T03:31:43;9.73;;;3.08;;
44270;SDS011;29963;44.594;11.368;2024-02-23T03:34:08;3.35;;;2.65;;
44270;SDS011;29963;44.594;11.368;2024-02-23T03:36:34;6.32;;;3.80;;
44270;SDS011;29963;44.594;11.368;2024-02-23T03:39:00;5.47;;;3.17;;
44270;SDS011;29963;44.594;11.368;2024-02-23T03:41:26;8.00;;;3.33;;
44270;SDS011;29963;44.594;11.368;2024-02-23T03:43:51;7.88;;;3.17;;
44270;SDS011;29963;44.594;11.368;2024-02-23T03:46:17;4.85;;;3.08;;
44270;SDS011;29963;44.594;11.368;2024-02-23T03:48:44;7.15;;;3.40;;
44270;SDS011;29963;44.594;11.368;2024-02-23T03:51:10;5.30;;;2.92;;
44270;SDS011;29963;44.594;11.368;2024-02-23T03:53:36;7.13;;;3.70;;
44270;SDS011;29963;44.594;11.368;2024-02-23T03:56:01;7.47;;;3.45;;
44270;SDS011;29963;44.594;11.368;2024-02-23T03:58:27;5.22;;;3.08;;
44270;SDS011;29963;44.594;11.368;2024-02-23T04:00:53;8.40;;;3.58;;
44270;SDS011;29963;44.594;11.368;2024-02-23T04:03:19;7.88;;;4.20;;
44270;SDS011;29963;44.594;11.368;2024-02-23T04:05:44;5.82;;;3.50;;
44270;SDS011;29963;44.594;11.368;2024-02-23T04:08:10;9.18;;;3.40;;
44270;SDS011;29963;44.594;11.368;2024-02-23T04:10:36;13.38;;;4.40;;
44270;SDS011;29963;44.594;11.368;2024-02-23T04:13:01;7.60;;;2.90;;
44270;SDS011;29963;44.594;11.368;2024-02-23T04:15:27;6.85;;;3.80;;
44270;SDS011;29963;44.594;11.368;2024-02-23T04:17:52;8.23;;;3.33;;
44270;SDS011;29963;44.594;11.368;2024-02-23T04:20:18;6.13;;;3.28;;
44270;SDS011;29963;44.594;11.368;2024-02-23T04:22:44;5.68;;;3.45;;
44270;SDS011;29963;44.594;11.368;2024-02-23T04:25:10;7.45;;;3.70;;
44270;SDS011;29963;44.594;11.368;2024-02-23T04:27:35;6.95;;;3.55;;
44270;SDS011;29963;44.594;11.368;2024-02-23T04:30:01;10.73;;;3.90;;
44270;SDS011;29963;44.594;11.368;2024-02-23T04:32:27;6.25;;;3.72;;
44270;SDS011;29963;44.594;11.368;2024-02-23T04:34:53;7.70;;;3.30;;
44270;SDS011;29963;44.594;11.368;2024-02-23T04:37:18;6.65;;;3.95;;
44270;SDS011;29963;44.594;11.368;2024-02-23T04:39:44;6.28;;;3.35;;
44270;SDS011;29963;44.594;11.368;2024-02-23T04:42:10;5.53;;;3.03;;
44270;SDS011;29963;44.594;11.368;2024-02-23T04:44:35;5.93;;;3.05;;
44270;SDS011;29963;44.594;11.368;2024-02-23T04:47:01;5.07;;;3.20;;
44270;SDS011;29963;44.594;11.368;2024-02-23T04:49:27;5.22;;;3.30;;
44270;SDS011;29963;44.594;11.368;2024-02-23T04:51:53;8.02;;;2.65;;
44270;SDS011;29963;44.594;11.368;2024-02-23T04:54:19;6.50;;;3.60;;
44270;SDS011;29963;44.594;11.368;2024-02-23T04:56:46;8.68;;;4.53;;
44270;SDS011;29963;44.594;11.368;2024-02-23T04:59:12;4.63;;;2.60;;
44270;SDS011;29963;44.594;11.368;2024-02-23T05:01:38;4.75;;;3.20;;
44270;SDS011;29963;44.594;11.368;2024-02-23T05:04:04;7.78;;;3.38;;
44270;SDS011;29963;44.594;11.368;2024-02-23T05:06:30;10.32;;;3.10;;
44270;SDS011;29963;44.594;11.368;2024-02-23T05:08:55;7.28;;;3.05;;
44270;SDS011;29963;44.594;11.368;2024-02-23T05:11:21;5.65;;;3.78;;
44270;SDS011;29963;44.594;11.368;2024-02-23T05:13:47;4.53;;;3.42;;
44270;SDS011;29963;44.594;11.368;2024-02-23T05:16:16;8.05;;;3.92;;
44270;SDS011;29963;44.594;11.368;2024-02-23T05:18:41;8.10;;;3.42;;
44270;SDS011;29963;44.594;11.368;2024-02-23T05:21:08;10.15;;;3.20;;
44270;SDS011;29963;44.594;11.368;2024-02-23T05:23:35;8.45;;;3.40;;
44270;SDS011;29963;44.594;11.368;2024-02-23T05:26:01;9.27;;;2.83;;
44270;SDS011;29963;44.594;11.368;2024-02-23T05:28:26;5.47;;;2.75;;
44270;SDS011;29963;44.594;11.368;2024-02-23T05:30:53;5.68;;;3.03;;
44270;SDS011;29963;44.594;11.368;2024-02-23T05:33:20;5.97;;;2.47;;
44270;SDS011;29963;44.594;11.368;2024-02-23T05:35:46;4.68;;;2.85;;
44270;SDS011;29963;44.594;11.368;2024-02-23T05:38:15;7.90;;;3.53;;
44270;SDS011;29963;44.594;11.368;2024-02-23T05:40:41;5.93;;;2.95;;
44270;SDS011;29963;44.594;11.368;2024-02-23T05:43:10;7.63;;;3.83;;
44270;SDS011;29963;44.594;11.368;2024-02-23T05:45:36;6.07;;;2.53;;
44270;SDS011;29963;44.594;11.368;2024-02-23T05:48:02;9.13;;;3.05;;
44270;SDS011;29963;44.594;11.368;2024-02-23T05:50:28;4.43;;;2.88;;
44270;SDS011;29963;44.594;11.368;2024-02-23T05:52:57;5.40;;;3.45;;
44270;SDS011;29963;44.594;11.368;2024-02-23T05:55:23;5.40;;;2.67;;
44270;SDS011;29963;44.594;11.368;2024-02-23T05:57:49;8.88;;;3.10;;
44270;SDS011;29963;44.594;11.368;2024-02-23T06:00:15;6.32;;;2.90;;
44270;SDS011;29963;44.594;11.368;2024-02-23T06:02:44;9.45;;;2.60;;
44270;SDS011;29963;44.594;11.368;2024-02-23T06:05:10;7.30;;;3.20;;
44270;SDS011;29963;44.594;11.368;2024-02-23T06:07:36;8.38;;;3.13;;
44270;SDS011;29963;44.594;11.368;2024-02-23T06:10:02;7.13;;;3.60;;
44270;SDS011;29963;44.594;11.368;2024-02-23T06:12:28;4.82;;;3.38;;
44270;SDS011;29963;44.594;11.368;2024-02-23T06:14:53;5.90;;;2.85;;
44270;SDS011;29963;44.594;11.368;2024-02-23T06:17:21;11.10;;;3.20;;
44270;SDS011;29963;44.594;11.368;2024-02-23T06:19:48;4.68;;;2.95;;
44270;SDS011;29963;44.594;11.368;2024-02-23T06:22:14;4.50;;;3.30;;
44270;SDS011;29963;44.594;11.368;2024-02-23T06:24:46;7.47;;;3.28;;
44270;SDS011;29963;44.594;11.368;2024-02-23T06:27:12;6.80;;;3.03;;
44270;SDS011;29963;44.594;11.368;2024-02-23T06:29:37;6.53;;;2.83;;
44270;SDS011;29963;44.594;11.368;2024-02-23T06:32:03;6.30;;;3.65;;
44270;SDS011;29963;44.594;11.368;2024-02-23T06:34:29;6.82;;;2.85;;
44270;SDS011;29963;44.594;11.368;2024-02-23T06:36:55;9.10;;;3.20;;
44270;SDS011;29963;44.594;11.368;2024-02-23T06:39:20;9.00;;;3.35;;
44270;SDS011;29963;44.594;11.368;2024-02-23T06:41:46;10.05;;;3.10;;
44270;SDS011;29963;44.594;11.368;2024-02-23T06:44:12;5.43;;;2.85;;
44270;SDS011;29963;44.594;11.368;2024-02-23T06:46:37;8.38;;;3.20;;
44270;SDS011;29963;44.594;11.368;2024-02-23T06:49:03;6.97;;;3.20;;
44270;SDS011;29963;44.594;11.368;2024-02-23T06:51:29;9.10;;;4.00;;
44270;SDS011;29963;44.594;11.368;2024-02-23T06:53:56;5.30;;;3.28;;
44270;SDS011;29963;44.594;11.368;2024-02-23T06:56:22;5.63;;;3.17;;
44270;SDS011;29963;44.594;11.368;2024-02-23T06:58:48;8.70;;;4.15;;
44270;SDS011;29963;44.594;11.368;2024-02-23T07:01:13;7.53;;;3.97;;
44270;SDS011;29963;44.594;11.368;2024-02-23T07:03:39;7.97;;;4.18;;
44270;SDS011;29963;44.594;11.368;2024-02-23T07:06:07;5.78;;;3.58;;
44270;SDS011;29963;44.594;11.368;2024-02-23T07:08:35;9.50;;;3.83;;
44270;SDS011;29963;44.594;11.368;2024-02-23T07:11:00;8.20;;;3.53;;
44270;SDS011;29963;44.594;11.368;2024-02-23T07:13:26;8.15;;;3.30;;
44270;SDS011;29963;44.594;11.368;2024-02-23T07:15:52;3.83;;;3.40;;
44270;SDS011;29963;44.594;11.368;2024-02-23T07:18:17;6.63;;;3.75;;
44270;SDS011;29963;44.594;11.368;2024-02-23T07:20:44;6.22;;;3.63;;
44270;SDS011;29963;44.594;11.368;2024-02-23T07:23:10;6.25;;;3.92;;
44270;SDS011;29963;44.594;11.368;2024-02-23T07:25:35;4.70;;;3.55;;
44270;SDS011;29963;44.594;11.368;2024-02-23T07:28:01;5.65;;;3.50;;
44270;SDS011;29963;44.594;11.368;2024-02-23T07:30:27;6.47;;;3.65;;
44270;SDS011;29963;44.594;11.368;2024-02-23T07:32:53;6.03;;;3.33;;
44270;SDS011;29963;44.594;11.368;2024-02-23T07:35:18;4.57;;;3.53;;
44270;SDS011;29963;44.594;11.368;2024-02-23T07:37:44;4.47;;;2.78;;
44270;SDS011;29963;44.594;11.368;2024-02-23T07:40:10;11.77;;;3.67;;
44270;SDS011;29963;44.594;11.368;2024-02-23T07:42:37;8.95;;;3.08;;
44270;SDS011;29963;44.594;11.368;2024-02-23T07:45:03;7.28;;;2.78;;
44270;SDS011;29963;44.594;11.368;2024-02-23T07:47:30;4.15;;;2.78;;
44270;SDS011;29963;44.594;11.368;2024-02-23T07:49:56;5.72;;;3.08;;
44270;SDS011;29963;44.594;11.368;2024-02-23T07:52:21;4.85;;;3.42;;
44270;SDS011;29963;44.594;11.368;2024-02-23T07:54:51;7.53;;;3.40;;
44270;SDS011;29963;44.594;11.368;2024-02-23T07:57:18;12.93;;;3.70;;
44270;SDS011;29963;44.594;11.368;2024-02-23T07:59:44;8.55;;;3.83;;
44270;SDS011;29963;44.594;11.368;2024-02-23T08:02:09;6.65;;;3.33;;
44270;SDS011;29963;44.594;11.368;2024-02-23T08:04:35;10.98;;;4.40;;
44270;SDS011;29963;44.594;11.368;2024-02-23T08:07:01;9.02;;;3.20;;
44270;SDS011;29963;44.594;11.368;2024-02-23T08:09:27;6.85;;;4.25;;
44270;SDS011;29963;44.594;11.368;2024-02-23T08:11:52;8.55;;;4.38;;
44270;SDS011;29963;44.594;11.368;2024-02-23T08:14:18;8.23;;;3.80;;
44270;SDS011;29963;44.594;11.368;2024-02-23T08:16:43;6.95;;;3.78;;
44270;SDS011;29963;44.594;11.368;2024-02-23T08:19:09;7.32;;;4.22;;
44270;SDS011;29963;44.594;11.368;2024-02-23T08:21:35;10.60;;;3.90;;
44270;SDS011;29963;44.594;11.368;2024-02-23T08:24:01;10.13;;;3.58;;
44270;SDS011;29963;44.594;11.368;2024-02-23T08:26:27;11.38;;;4.47;;
44270;SDS011;29963;44.594;11.368;2024-02-23T08:28:53;8.25;;;4.13;;
44270;SDS011;29963;44.594;11.368;2024-02-23T08:31:18;8.23;;;3.67;;
44270;SDS011;29963;44.594;11.368;2024-02-23T08:33:44;7.43;;;4.45;;
44270;SDS011;29963;44.594;11.368;2024-02-23T08:36:10;6.57;;;4.10;;
44270;SDS011;29963;44.594;11.368;2024-02-23T08:38:35;10.10;;;4.22;;
44270;SDS011;29963;44.594;11.368;2024-02-23T08:41:02;9.27;;;5.07;;
44270;SDS011;29963;44.594;11.368;2024-02-23T08:43:28;8.68;;;3.90;;
44270;SDS011;29963;44.594;11.368;2024-02-23T08:45:53;7.97;;;3.40;;
44270;SDS011;29963;44.594;11.368;2024-02-23T08:48:19;5.82;;;3.90;;
44270;SDS011;29963;44.594;11.368;2024-02-23T08:50:44;9.38;;;3.65;;
44270;SDS011;29963;44.594;11.368;2024-02-23T08:53:10;11.23;;;3.70;;
44270;SDS011;29963;44.594;11.368;2024-02-23T08:55:36;5.63;;;3.33;;
44270;SDS011;29963;44.594;11.368;2024-02-23T08:58:02;6.97;;;3.30;;
44270;SDS011;29963;44.594;11.368;2024-02-23T09:00:27;6.75;;;3.42;;
44270;SDS011;29963;44.594;11.368;2024-02-23T09:02:53;7.68;;;3.40;;
44270;SDS011;29963;44.594;11.368;2024-02-23T09:05:19;8.43;;;3.53;;
44270;SDS011;29963;44.594;11.368;2024-02-23T09:07:45;8.43;;;3.28;;
44270;SDS011;29963;44.594;11.368;2024-02-23T09:10:11;7.43;;;3.67;;
44270;SDS011;29963;44.594;11.368;2024-02-23T09:12:37;7.18;;;3.47;;
44270;SDS011;29963;44.594;11.368;2024-02-23T09:15:03;8.18;;;3.70;;
44270;SDS011;29963;44.594;11.368;2024-02-23T09:17:30;10.23;;;3.70;;
44270;SDS011;29963;44.594;11.368;2024-02-23T09:19:55;10.43;;;3.95;;
44270;SDS011;29963;44.594;11.368;2024-02-23T09:22:21;11.35;;;3.85;;
44270;SDS011;29963;44.594;11.368;2024-02-23T09:24:47;5.90;;;3.72;;
44270;SDS011;29963;44.594;11.368;2024-02-23T09:27:13;8.65;;;3.67;;
44270;SDS011;29963;44.594;11.368;2024-02-23T09:29:40;8.43;;;3.55;;
44270;SDS011;29963;44.594;11.368;2024-02-23T09:32:07;4.95;;;3.05;;
44270;SDS011;29963;44.594;11.368;2024-02-23T09:34:33;5.80;;;4.03;;
44270;SDS011;29963;44.594;11.368;2024-02-23T09:36:58;7.32;;;4.93;;
44270;SDS011;29963;44.594;11.368;2024-02-23T09:39:24;8.07;;;6.60;;
44270;SDS011;29963;44.594;11.368;2024-02-23T09:41:51;11.93;;;8.23;;
44270;SDS011;29963;44.594;11.368;2024-02-23T09:44:19;11.70;;;8.93;;
44270;SDS011;29963;44.594;11.368;2024-02-23T09:46:48;11.27;;;8.05;;
44270;SDS011;29963;44.594;11.368;2024-02-23T09:49:17;9.43;;;7.88;;
44270;SDS011;29963;44.594;11.368;2024-02-23T09:51:43;10.82;;;7.88;;
44270;SDS011;29963;44.594;11.368;2024-02-23T09:54:09;9.98;;;7.50;;
44270;SDS011;29963;44.594;11.368;2024-02-23T09:56:34;10.45;;;8.57;;
44270;SDS011;29963;44.594;11.368;2024-02-23T09:59:02;13.85;;;8.75;;
44270;SDS011;29963;44.594;11.368;2024-02-23T10:01:31;12.57;;;9.10;;
44270;SDS011;29963;44.594;11.368;2024-02-23T10:03:58;12.68;;;8.77;;
44270;SDS011;29963;44.594;11.368;2024-02-23T10:06:25;11.35;;;9.18;;
44270;SDS011;29963;44.594;11.368;2024-02-23T10:08:52;13.38;;;9.45;;
44270;SDS011;29963;44.594;11.368;2024-02-23T10:11:21;12.45;;;9.57;;
44270;SDS011;29963;44.594;11.368;2024-02-23T10:13:47;10.75;;;8.90;;
44270;SDS011;29963;44.594;11.368;2024-02-23T10:16:15;11.82;;;9.63;;
44270;SDS011;29963;44.594;11.368;2024-02-23T10:18:41;12.40;;;9.13;;
44270;SDS011;29963;44.594;11.368;2024-02-23T10:21:06;11.43;;;9.80;;
44270;SDS011;29963;44.594;11.368;2024-02-23T10:23:32;13.30;;;10.55;;
44270;SDS011;29963;44.594;11.368;2024-02-23T10:25:58;14.43;;;9.55;;
44270;SDS011;29963;44.594;11.368;2024-02-23T10:28:24;14.88;;;9.88;;
44270;SDS011;29963;44.594;11.368;2024-02-23T10:30:49;10.85;;;9.68;;
44270;SDS011;29963;44.594;11.368;2024-02-23T10:33:15;13.80;;;10.15;;
44270;SDS011;29963;44.594;11.368;2024-02-23T10:35:47;14.20;;;10.25;;
44270;SDS011;29963;44.594;11.368;2024-02-23T10:38:18;12.25;;;9.93;;
44270;SDS011;29963;44.594;11.368;2024-02-23T10:40:44;11.82;;;10.55;;
44270;SDS011;29963;44.594;11.368;2024-02-23T10:43:12;13.40;;;10.82;;
44270;SDS011;29963;44.594;11.368;2024-02-23T10:45:42;13.85;;;11.63;;
44270;SDS011;29963;44.594;11.368;2024-02-23T10:48:09;16.38;;;11.38;;
44270;SDS011;29963;44.594;11.368;2024-02-23T10:50:36;18.17;;;12.73;;
44270;SDS011;29963;44.594;11.368;2024-02-23T10:53:04;15.10;;;12.77;;
44270;SDS011;29963;44.594;11.368;2024-02-23T10:55:33;18.60;;;15.20;;
44270;SDS011;29963;44.594;11.368;2024-02-23T10:58:02;18.02;;;13.02;;
44270;SDS011;29963;44.594;11.368;2024-02-23T11:00:32;14.68;;;12.20;;
44270;SDS011;29963;44.594;11.368;2024-02-23T11:02:58;17.23;;;12.82;;
44270;SDS011;29963;44.594;11.368;2024-02-23T11:05:25;12.70;;;11.43;;
44270;SDS011;29963;44.594;11.368;2024-02-23T11:07:51;15.60;;;12.65;;
44270;SDS011;29963;44.594;11.368;2024-02-23T11:10:21;15.57;;;12.70;;
44270;SDS011;29963;44.594;11.368;2024-02-23T11:12:58;15.50;;;10.65;;
44270;SDS011;29963;44.594;11.368;2024-02-23T11:15:28;14.68;;;13.07;;
44270;SDS011;29963;44.594;11.368;2024-02-23T11:17:57;15.40;;;12.13;;
44270;SDS011;29963;44.594;11.368;2024-02-23T11:20:23;15.68;;;12.15;;
44270;SDS011;29963;44.594;11.368;2024-02-23T11:22:53;19.73;;;12.52;;
44270;SDS011;29963;44.594;11.368;2024-02-23T11:25:26;16.55;;;10.90;;
44270;SDS011;29963;44.594;11.368;2024-02-23T11:27:52;13.88;;;11.73;;
44270;SDS011;29963;44.594;11.368;2024-02-23T11:30:17;15.40;;;12.52;;
44270;SDS011;29963;44.594;11.368;2024-02-23T11:32:45;12.02;;;10.82;;
44270;SDS011;29963;44.594;11.368;2024-02-23T11:35:19;13.18;;;11.77;;
44270;SDS011;29963;44.594;11.368;2024-02-23T11:37:45;13.38;;;11.98;;
44270;SDS011;29963;44.594;11.368;2024-02-23T11:40:12;14.18;;;11.20;;
44270;SDS011;29963;44.594;11.368;2024-02-23T11:42:42;13.38;;;11.57;;
44270;SDS011;29963;44.594;11.368;2024-02-23T11:45:08;13.65;;;11.48;;
44270;SDS011;29963;44.594;11.368;2024-02-23T11:47:34;13.55;;;11.52;;
44270;SDS011;29963;44.594;11.368;2024-02-23T11:50:01;12.68;;;11.40;;
44270;SDS011;29963;44.594;11.368;2024-02-23T11:52:26;14.32;;;10.10;;
44270;SDS011;29963;44.594;11.368;2024-02-23T11:54:52;13.35;;;12.02;;
44270;SDS011;29963;44.594;11.368;2024-02-23T11:57:18;13.50;;;11.55;;
44270;SDS011;29963;44.594;11.368;2024-02-23T11:59:44;13.20;;;11.70;;
44270;SDS011;29963;44.594;11.368;2024-02-23T12:02:09;13.68;;;12.30;;
44270;SDS011;29963;44.594;11.368;2024-02-23T12:04:38;14.85;;;11.77;;
44270;SDS011;29963;44.594;11.368;2024-02-23T12:07:03;12.77;;;10.70;;
44270;SDS011;29963;44.594;11.368;2024-02-23T12:09:29;12.80;;;11.50;;
44270;SDS011;29963;44.594;11.368;2024-02-23T12:11:55;13.23;;;10.77;;
44270;SDS011;29963;44.594;11.368;2024-02-23T12:14:21;14.25;;;12.38;;
44270;SDS011;29963;44.594;11.368;2024-02-23T12:16:47;12.85;;;11.65;;
44270;SDS011;29963;44.594;11.368;2024-02-23T12:19:14;12.07;;;10.82;;
44270;SDS011;29963;44.594;11.368;2024-02-23T12:21:40;12.75;;;10.32;;
44270;SDS011;29963;44.594;11.368;2024-02-23T12:24:06;14.13;;;10.68;;
44270;SDS011;29963;44.594;11.368;2024-02-23T12:26:33;16.65;;;12.82;;
44270;SDS011;29963;44.594;11.368;2024-02-23T12:29:02;11.95;;;10.52;;
44270;SDS011;29963;44.594;11.368;2024-02-23T12:31:28;12.63;;;10.93;;
44270;SDS011;29963;44.594;11.368;2024-02-23T12:33:54;11.18;;;10.07;;
44270;SDS011;29963;44.594;11.368;2024-02-23T12:36:22;18.52;;;13.00;;
44270;SDS011;29963;44.594;11.368;2024-02-23T12:38:48;12.10;;;10.90;;
44270;SDS011;29963;44.594;11.368;2024-02-23T12:41:14;13.07;;;10.93;;
44270;SDS011;29963;44.594;11.368;2024-02-23T12:43:39;12.20;;;9.43;;
44270;SDS011;29963;44.594;11.368;2024-02-23T12:46:05;13.57;;;10.25;;
44270;SDS011;29963;44.594;11.368;2024-02-23T12:48:33;11.15;;;9.77;;
44270;SDS011;29963;44.594;11.368;2024-02-23T12:50:59;9.80;;;8.90;;
44270;SDS011;29963;44.594;11.368;2024-02-23T12:53:38;10.70;;;9.60;;
44270;SDS011;29963;44.594;11.368;2024-02-23T12:56:08;10.55;;;9.43;;
44270;SDS011;29963;44.594;11.368;2024-02-23T12:58:39;9.98;;;8.45;;
44270;SDS011;29963;44.594;11.368;2024-02-23T13:01:06;11.30;;;9.43;;
44270;SDS011;29963;44.594;11.368;2024-02-23T13:03:33;10.02;;;8.27;;
44270;SDS011;29963;44.594;11.368;2024-02-23T13:06:00;9.80;;;8.10;;
44270;SDS011;29963;44.594;11.368;2024-02-23T13:08:26;11.77;;;8.05;;
44270;SDS011;29963;44.594;11.368;2024-02-23T13:10:55;8.07;;;7.38;;
44270;SDS011;29963;44.594;11.368;2024-02-23T13:13:21;7.72;;;7.03;;
44270;SDS011;29963;44.594;11.368;2024-02-23T13:15:48;7.72;;;6.95;;
44270;SDS011;29963;44.594;11.368;2024-02-23T13:18:17;8.52;;;7.25;;
44270;SDS011;29963;44.594;11.368;2024-02-23T13:20:44;7.85;;;6.68;;
44270;SDS011;29963;44.594;11.368;2024-02-23T13:23:10;7.88;;;7.18;;
44270;SDS011;29963;44.594;11.368;2024-02-23T13:25:37;7.65;;;6.95;;
44270;SDS011;29963;44.594;11.368;2024-02-23T13:28:04;8.60;;;6.65;;
44270;SDS011;29963;44.594;11.368;2024-02-23T13:30:31;7.55;;;6.68;;
44270;SDS011;29963;44.594;11.368;2024-02-23T13:32:57;6.32;;;5.72;;
44270;SDS011;29963;44.594;11.368;2024-02-23T13:35:23;7.35;;;6.10;;
44270;SDS011;29963;44.594;11.368;2024-02-23T13:37:48;6.55;;;5.97;;
44270;SDS011;29963;44.594;11.368;2024-02-23T13:40:14;8.25;;;6.53;;
44270;SDS011;29963;44.594;11.368;2024-02-23T13:42:40;7.40;;;6.70;;
44270;SDS011;29963;44.594;11.368;2024-02-23T13:45:06;7.90;;;7.10;;
44270;SDS011;29963;44.594;11.368;2024-02-23T13:47:33;7.03;;;6.32;;
44270;SDS011;29963;44.594;11.368;2024-02-23T13:50:02;6.90;;;6.30;;
44270;SDS011;29963;44.594;11.368;2024-02-23T13:52:28;7.13;;;6.43;;
44270;SDS011;29963;44.594;11.368;2024-02-23T13:54:54;8.35;;;7.18;;
44270;SDS011;29963;44.594;11.368;2024-02-23T13:57:19;6.85;;;6.15;;
44270;SDS011;29963;44.594;11.368;2024-02-23T13:59:45;8.43;;;7.25;;
44270;SDS011;29963;44.594;11.368;2024-02-23T14:02:14;8.13;;;7.20;;
44270;SDS011;29963;44.594;11.368;2024-02-23T14:04:40;9.23;;;8.32;;
44270;SDS011;29963;44.594;11.368;2024-02-23T14:07:06;11.57;;;8.48;;
44270;SDS011;29963;44.594;11.368;2024-02-23T14:09:32;8.88;;;8.07;;
44270;SDS011;29963;44.594;11.368;2024-02-23T14:11:58;9.85;;;8.95;;
44270;SDS011;29963;44.594;11.368;2024-02-23T14:14:27;13.38;;;9.65;;
44270;SDS011;29963;44.594;11.368;2024-02-23T14:16:52;9.50;;;8.60;;
44270;SDS011;29963;44.594;11.368;2024-02-23T14:19:19;9.90;;;8.85;;
44270;SDS011;29963;44.594;11.368;2024-02-23T14:21:45;8.52;;;7.72;;
44270;SDS011;29963;44.594;11.368;2024-02-23T14:24:13;11.52;;;8.73;;